sensor_id;sensor_type;location;lat;lon;timestamp;pressure;altitude;pressure_sealevel;temperature;humidity
9784;BME280;4931;44.874;-1.092;2024-02-26T00:01:38;99512.97;;;10.94;100.00
9784;BME280;4931;44.874;-1.092;2024-02-26T00:04:03;99520.50;;;10.88;100.00
9784;BME280;4931;44.874;-1.092;2024-02-26T00:06:30;99518.66;;;10.61;100.00
9784;BME280;4931;44.874;-1.092;2024-02-26T00:08:56;99514.38;;;10.69;100.00
9784;BME280;4931;44.874;-1.092;2024-02-26T00:11:21;99518.06;;;10.64;100.00
9784;BME280;4931;44.874;-1.092;2024-02-26T00:13:47;99499.88;;;10.68;100.00
9784;BME280;4931;44.874;-1.092;2024-02-26T00:16:12;99503.72;;;10.67;100.00
9784;BME280;4931;44.874;-1.092;2024-02-26T00:18:38;99506.38;;;10.58;100.00
9784;BME280;4931;44.874;-1.092;2024-02-26T00:21:03;99512.31;;;10.52;100.00
9784;BME280;4931;44.874;-1.092;2024-02-26T00:23:29;99503.53;;;10.63;100.00
9784;BME280;4931;44.874;-1.092;2024-02-26T00:25:54;99501.47;;;10.46;100.00
9784;BME280;4931;44.874;-1.092;2024-02-26T00:28:20;99508.03;;;10.59;100.00
9784;BME280;4931;44.874;-1.092;2024-02-26T00:30:46;99510.19;;;10.49;100.00
9784;BME280;4931;44.874;-1.092;2024-02-26T00:33:12;99498.47;;;10.57;100.00
9784;BME280;4931;44.874;-1.092;2024-02-26T00:35:37;99488.78;;;10.51;100.00
9784;BME280;4931;44.874;-1.092;2024-02-26T00:38:03;99512.13;;;10.48;100.00
9784;BME280;4931;44.874;-1.092;2024-02-26T00:40:29;99497.13;;;10.45;100.00
9784;BME280;4931;44.874;-1.092;2024-02-26T00:42:54;99489.59;;;10.37;100.00
9784;BME280;4931;44.874;-1.092;2024-02-26T00:45:20;99497.13;;;10.45;100.00
9784;BME280;4931;44.874;-1.092;2024-02-26T00:47:45;99485.94;;;10.42;100.00
9784;BME280;4931;44.874;-1.092;2024-02-26T00:50:12;99473.34;;;10.41;100.00
9784;BME280;4931;44.874;-1.092;2024-02-26T00:52:38;99475.00;;;10.28;100.00
9784;BME280;4931;44.874;-1.092;2024-02-26T00:55:04;99456.47;;;10.48;100.00
9784;BME280;4931;44.874;-1.092;2024-02-26T00:57:30;99449.88;;;10.49;100.00
9784;BME280;4931;44.874;-1.092;2024-02-26T00:59:55;99443.47;;;10.53;100.00
9784;BME280;4931;44.874;-1.092;2024-02-26T01:02:22;99442.66;;;10.53;100.00
9784;BME280;4931;44.874;-1.092;2024-02-26T01:04:48;99471.69;;;10.54;100.00
9784;BME280;4931;44.874;-1.092;2024-02-26T01:07:13;99462.22;;;10.60;100.00
9784;BME280;4931;44.874;-1.092;2024-02-26T01:09:38;99466.31;;;10.49;100.00
9784;BME280;4931;44.874;-1.092;2024-02-26T01:12:04;99480.34;;;10.47;100.00
9784;BME280;4931;44.874;-1.092;2024-02-26T01:14:29;99478.03;;;10.40;100.00
9784;BME280;4931;44.874;-1.092;2024-02-26T01:16:55;99472.13;;;10.33;100.00
9784;BME280;4931;44.874;-1.092;2024-02-26T01:19:21;99476.50;;;10.34;100.00
9784;BME280;4931;44.874;-1.092;2024-02-26T01:21:46;99471.94;;;10.43;100.00
9784;BME280;4931;44.874;-1.092;2024-02-26T01:24:12;99469.69;;;10.45;100.00
9784;BME280;4931;44.874;-1.092;2024-02-26T01:26:37;99490.63;;;10.41;100.00
9784;BME280;4931;44.874;-1.092;2024-02-26T01:29:03;99500.56;;;10.37;100.00
9784;BME280;4931;44.874;-1.092;2024-02-26T01:31:29;99479.69;;;10.13;100.00
9784;BME280;4931;44.874;-1.092;2024-02-26T01:33:54;99458.41;;;9.96;100.00
9784;BME280;4931;44.874;-1.092;2024-02-26T01:36:19;99455.63;;;9.88;100.00
9784;BME280;4931;44.874;-1.092;2024-02-26T01:38:46;99433.50;;;9.84;100.00
9784;BME280;4931;44.874;-1.092;2024-02-26T01:41:13;99422.13;;;9.91;100.00
9784;BME280;4931;44.874;-1.092;2024-02-26T01:43:39;99420.59;;;9.85;100.00
9784;BME280;4931;44.874;-1.092;2024-02-26T01:46:04;99428.81;;;9.85;100.00
9784;BME280;4931;44.874;-1.092;2024-02-26T01:48:30;99415.75;;;9.82;100.00
9784;BME280;4931;44.874;-1.092;2024-02-26T01:50:56;99410.78;;;9.84;100.00
9784;BME280;4931;44.874;-1.092;2024-02-26T01:53:21;99421.34;;;9.76;100.00
9784;BME280;4931;44.874;-1.092;2024-02-26T01:55:47;99412.16;;;9.95;100.00
9784;BME280;4931;44.874;-1.092;2024-02-26T01:58:13;99416.25;;;9.84;100.00
9784;BME280;4931;44.874;-1.092;2024-02-26T02:00:39;99417.50;;;9.77;100.00
9784;BME280;4931;44.874;-1.092;2024-02-26T02:03:05;99426.06;;;9.85;100.00
9784;BME280;4931;44.874;-1.092;2024-02-26T02:05:30;99431.66;;;9.79;100.00
9784;BME280;4931;44.874;-1.092;2024-02-26T02:07:56;99418.59;;;9.76;100.00
9784;BME280;4931;44.874;-1.092;2024-02-26T02:10:22;99407.91;;;9.89;100.00
9784;BME280;4931;44.874;-1.092;2024-02-26T02:12:51;99400.09;;;9.96;100.00
9784;BME280;4931;44.874;-1.092;2024-02-26T02:15:17;99430.03;;;9.92;100.00
9784;BME280;4931;44.874;-1.092;2024-02-26T02:17:42;99441.41;;;9.86;100.00
9784;BME280;4931;44.874;-1.092;2024-02-26T02:20:17;99467.38;;;9.88;100.00
9784;BME280;4931;44.874;-1.092;2024-02-26T02:22:46;99476.53;;;9.84;100.00
9784;BME280;4931;44.874;-1.092;2024-02-26T02:25:12;99455.72;;;9.83;100.00
9784;BME280;4931;44.874;-1.092;2024-02-26T02:27:39;99463.72;;;9.93;100.00
9784;BME280;4931;44.874;-1.092;2024-02-26T02:30:05;99467.78;;;9.82;100.00
9784;BME280;4931;44.874;-1.092;2024-02-26T02:32:31;99470.31;;;9.78;100.00
9784;BME280;4931;44.874;-1.092;2024-02-26T02:34:57;99464.75;;;9.83;100.00
9784;BME280;4931;44.874;-1.092;2024-02-26T02:37:23;99470.84;;;9.80;100.00
9784;BME280;4931;44.874;-1.092;2024-02-26T02:39:48;99486.16;;;9.81;100.00
9784;BME280;4931;44.874;-1.092;2024-02-26T02:42:15;99478.75;;;9.82;100.00
9784;BME280;4931;44.874;-1.092;2024-02-26T02:44:40;99482.00;;;9.84;100.00
9784;BME280;4931;44.874;-1.092;2024-02-26T02:47:05;99484.91;;;9.87;100.00
9784;BME280;4931;44.874;-1.092;2024-02-26T02:49:31;99470.41;;;9.87;100.00
9784;BME280;4931;44.874;-1.092;2024-02-26T02:51:56;99467.78;;;9.82;100.00
9784;BME280;4931;44.874;-1.092;2024-02-26T02:54:23;99484.31;;;9.90;100.00
9784;BME280;4931;44.874;-1.092;2024-02-26T02:56:48;99467.16;;;9.85;100.00
9784;BME280;4931;44.874;-1.092;2024-02-26T02:59:14;99481.78;;;9.80;100.00
9784;BME280;4931;44.874;-1.092;2024-02-26T03:01:39;99476.81;;;9.82;100.00
9784;BME280;4931;44.874;-1.092;2024-02-26T03:04:05;99444.47;;;9.70;100.00
9784;BME280;4931;44.874;-1.092;2024-02-26T03:06:30;99446.91;;;9.58;100.00
9784;BME280;4931;44.874;-1.092;2024-02-26T03:08:56;99437.59;;;9.59;100.00
9784;BME280;4931;44.874;-1.092;2024-02-26T03:11:21;99420.75;;;9.52;100.00
9784;BME280;4931;44.874;-1.092;2024-02-26T03:13:47;99415.69;;;9.59;100.00
9784;BME280;4931;44.874;-1.092;2024-02-26T03:16:12;99402.69;;;9.51;100.00
9784;BME280;4931;44.874;-1.092;2024-02-26T03:18:39;99402.94;;;9.40;100.00
9784;BME280;4931;44.874;-1.092;2024-02-26T03:21:05;99393.78;;;9.45;100.00
9784;BME280;4931;44.874;-1.092;2024-02-26T03:23:31;99389.94;;;9.46;100.00
9784;BME280;4931;44.874;-1.092;2024-02-26T03:25:58;99391.38;;;9.43;100.00
9784;BME280;4931;44.874;-1.092;2024-02-26T03:28:23;99375.75;;;9.44;100.00
9784;BME280;4931;44.874;-1.092;2024-02-26T03:30:49;99374.72;;;9.54;100.00
9784;BME280;4931;44.874;-1.092;2024-02-26T03:33:14;99363.06;;;9.48;100.00
9784;BME280;4931;44.874;-1.092;2024-02-26T03:35:39;99354.06;;;9.47;100.00
9784;BME280;4931;44.874;-1.092;2024-02-26T03:38:05;99358.31;;;9.54;100.00
9784;BME280;4931;44.874;-1.092;2024-02-26T03:40:30;99346.09;;;9.60;100.00
9784;BME280;4931;44.874;-1.092;2024-02-26T03:42:56;99347.56;;;9.57;100.00
9784;BME280;4931;44.874;-1.092;2024-02-26T03:45:23;99341.78;;;9.59;100.00
9784;BME280;4931;44.874;-1.092;2024-02-26T03:47:48;99348.13;;;9.68;100.00
9784;BME280;4931;44.874;-1.092;2024-02-26T03:50:14;99365.50;;;9.50;100.00
9784;BME280;4931;44.874;-1.092;2024-02-26T03:52:40;99333.56;;;9.45;100.00
9784;BME280;4931;44.874;-1.092;2024-02-26T03:55:05;99341.69;;;9.50;100.00
9784;BME280;4931;44.874;-1.092;2024-02-26T03:57:31;99333.63;;;9.68;100.00
9784;BME280;4931;44.874;-1.092;2024-02-26T03:59:56;99328.09;;;9.59;100.00
9784;BME280;4931;44.874;-1.092;2024-02-26T04:02:22;99332.34;;;9.51;100.00
9784;BME280;4931;44.874;-1.092;2024-02-26T04:04:48;99321.81;;;9.44;100.00
9784;BME280;4931;44.874;-1.092;2024-02-26T04:07:14;99323.19;;;9.56;100.00
9784;BME280;4931;44.874;-1.092;2024-02-26T04:09:39;99353.03;;;9.43;100.00
9784;BME280;4931;44.874;-1.092;2024-02-26T04:12:05;99343.09;;;9.47;100.00
9784;BME280;4931;44.874;-1.092;2024-02-26T04:14:31;99347.66;;;9.52;100.00
9784;BME280;4931;44.874;-1.092;2024-02-26T04:16:56;99355.69;;;9.49;100.00
9784;BME280;4931;44.874;-1.092;2024-02-26T04:19:21;99357.41;;;9.44;100.00
9784;BME280;4931;44.874;-1.092;2024-02-26T04:21:47;99353.66;;;9.40;100.00
9784;BME280;4931;44.874;-1.092;2024-02-26T04:24:12;99360.16;;;9.44;100.00
9784;BME280;4931;44.874;-1.092;2024-02-26T04:26:38;99364.47;;;9.45;100.00
9784;BME280;4931;44.874;-1.092;2024-02-26T04:29:04;99364.19;;;9.47;100.00
9784;BME280;4931;44.874;-1.092;2024-02-26T04:31:29;99353.44;;;9.51;100.00
9784;BME280;4931;44.874;-1.092;2024-02-26T04:33:56;99341.88;;;9.54;100.00
9784;BME280;4931;44.874;-1.092;2024-02-26T04:36:22;99346.34;;;9.50;100.00
9784;BME280;4931;44.874;-1.092;2024-02-26T04:38:47;99352.72;;;9.59;100.00
9784;BME280;4931;44.874;-1.092;2024-02-26T04:41:13;99358.91;;;9.51;100.00
9784;BME280;4931;44.874;-1.092;2024-02-26T04:43:38;99332.94;;;9.62;100.00
9784;BME280;4931;44.874;-1.092;2024-02-26T04:46:10;99327.09;;;9.55;100.00
9784;BME280;4931;44.874;-1.092;2024-02-26T04:48:38;99346.34;;;9.50;100.00
9784;BME280;4931;44.874;-1.092;2024-02-26T04:51:04;99322.72;;;9.54;100.00
9784;BME280;4931;44.874;-1.092;2024-02-26T04:53:30;99317.25;;;9.54;100.00
9784;BME280;4931;44.874;-1.092;2024-02-26T04:55:55;99334.78;;;9.53;100.00
9784;BME280;4931;44.874;-1.092;2024-02-26T04:58:21;99327.69;;;9.52;100.00
9784;BME280;4931;44.874;-1.092;2024-02-26T05:00:46;99329.94;;;9.50;100.00
9784;BME280;4931;44.874;-1.092;2024-02-26T05:03:12;99326.56;;;9.53;100.00
9784;BME280;4931;44.874;-1.092;2024-02-26T05:05:44;99315.09;;;9.51;100.00
9784;BME280;4931;44.874;-1.092;2024-02-26T05:08:10;99299.50;;;9.51;100.00
9784;BME280;4931;44.874;-1.092;2024-02-26T05:10:37;99336.31;;;9.45;100.00
9784;BME280;4931;44.874;-1.092;2024-02-26T05:13:05;99333.00;;;9.20;100.00
9784;BME280;4931;44.874;-1.092;2024-02-26T05:15:31;99328.53;;;9.24;100.00
9784;BME280;4931;44.874;-1.092;2024-02-26T05:17:56;99333.00;;;9.34;100.00
9784;BME280;4931;44.874;-1.092;2024-02-26T05:20:21;99338.06;;;9.27;100.00
9784;BME280;4931;44.874;-1.092;2024-02-26T05:22:47;99328.72;;;9.28;100.00
9784;BME280;4931;44.874;-1.092;2024-02-26T05:25:15;99324.88;;;9.29;100.00
9784;BME280;4931;44.874;-1.092;2024-02-26T05:27:41;99314.84;;;9.38;100.00
9784;BME280;4931;44.874;-1.092;2024-02-26T05:30:07;99325.28;;;9.36;100.00
9784;BME280;4931;44.874;-1.092;2024-02-26T05:32:32;99309.69;;;9.37;100.00
9784;BME280;4931;44.874;-1.092;2024-02-26T05:34:58;99317.56;;;9.38;100.00
9784;BME280;4931;44.874;-1.092;2024-02-26T05:37:23;99313.41;;;9.41;100.00
9784;BME280;4931;44.874;-1.092;2024-02-26T05:39:49;99303.25;;;9.41;100.00
9784;BME280;4931;44.874;-1.092;2024-02-26T05:42:14;99323.84;;;9.39;100.00
9784;BME280;4931;44.874;-1.092;2024-02-26T05:44:39;99323.19;;;9.56;100.00
9784;BME280;4931;44.874;-1.092;2024-02-26T05:47:05;99312.25;;;9.56;100.00
9784;BME280;4931;44.874;-1.092;2024-02-26T05:49:30;99326.81;;;9.65;100.00
9784;BME280;4931;44.874;-1.092;2024-02-26T05:51:56;99317.94;;;9.45;100.00
9784;BME280;4931;44.874;-1.092;2024-02-26T05:54:21;99344.63;;;9.54;100.00
9784;BME280;4931;44.874;-1.092;2024-02-26T05:56:47;99343.72;;;9.44;100.00
9784;BME280;4931;44.874;-1.092;2024-02-26T05:59:12;99346.72;;;9.57;100.00
9784;BME280;4931;44.874;-1.092;2024-02-26T06:01:38;99350.56;;;9.56;100.00
9784;BME280;4931;44.874;-1.092;2024-02-26T06:04:03;99342.25;;;9.61;100.00
9784;BME280;4931;44.874;-1.092;2024-02-26T06:06:29;99358.91;;;9.51;100.00
9784;BME280;4931;44.874;-1.092;2024-02-26T06:08:54;99362.78;;;9.50;100.00
9784;BME280;4931;44.874;-1.092;2024-02-26T06:11:19;99360.94;;;9.45;100.00
9784;BME280;4931;44.874;-1.092;2024-02-26T06:13:45;99356.28;;;9.45;100.00
9784;BME280;4931;44.874;-1.092;2024-02-26T06:16:10;99362.88;;;9.44;100.00
9784;BME280;4931;44.874;-1.092;2024-02-26T06:18:36;99360.53;;;9.52;100.00
9784;BME280;4931;44.874;-1.092;2024-02-26T06:21:01;99357.31;;;9.50;100.00
9784;BME280;4931;44.874;-1.092;2024-02-26T06:23:27;99355.63;;;9.62;100.00
9784;BME280;4931;44.874;-1.092;2024-02-26T06:25:53;99352.50;;;9.69;100.00
9784;BME280;4931;44.874;-1.092;2024-02-26T06:28:19;99356.59;;;9.80;100.00
9784;BME280;4931;44.874;-1.092;2024-02-26T06:30:44;99356.00;;;9.84;100.00
9784;BME280;4931;44.874;-1.092;2024-02-26T06:33:11;99348.91;;;9.83;100.00
9784;BME280;4931;44.874;-1.092;2024-02-26T06:35:38;99362.09;;;9.80;100.00
9784;BME280;4931;44.874;-1.092;2024-02-26T06:38:03;99319.69;;;9.78;100.00
9784;BME280;4931;44.874;-1.092;2024-02-26T06:40:29;99373.16;;;9.75;100.00
9784;BME280;4931;44.874;-1.092;2024-02-26T06:42:55;99364.78;;;9.58;100.00
9784;BME280;4931;44.874;-1.092;2024-02-26T06:45:21;99365.38;;;9.69;100.00
9784;BME280;4931;44.874;-1.092;2024-02-26T06:47:46;99361.31;;;9.66;100.00
9784;BME280;4931;44.874;-1.092;2024-02-26T06:50:12;99360.94;;;9.59;100.00
9784;BME280;4931;44.874;-1.092;2024-02-26T06:52:39;99358.19;;;9.59;100.00
9784;BME280;4931;44.874;-1.092;2024-02-26T06:55:05;99354.56;;;9.50;100.00
9784;BME280;4931;44.874;-1.092;2024-02-26T06:57:33;99355.56;;;9.54;100.00
9784;BME280;4931;44.874;-1.092;2024-02-26T06:59:59;99352.44;;;9.46;100.00
9784;BME280;4931;44.874;-1.092;2024-02-26T07:02:24;99351.41;;;9.42;100.00
9784;BME280;4931;44.874;-1.092;2024-02-26T07:04:50;99353.03;;;9.43;100.00
9784;BME280;4931;44.874;-1.092;2024-02-26T07:07:15;99345.31;;;9.45;100.00
9784;BME280;4931;44.874;-1.092;2024-02-26T07:09:43;99352.53;;;9.41;100.00
9784;BME280;4931;44.874;-1.092;2024-02-26T07:12:09;99352.53;;;9.41;100.00
9784;BME280;4931;44.874;-1.092;2024-02-26T07:14:34;99347.56;;;9.43;100.00
9784;BME280;4931;44.874;-1.092;2024-02-26T07:17:00;99349.38;;;9.48;100.00
9784;BME280;4931;44.874;-1.092;2024-02-26T07:19:26;99357.59;;;9.48;100.00
9784;BME280;4931;44.874;-1.092;2024-02-26T07:21:51;99351.41;;;9.42;100.00
9784;BME280;4931;44.874;-1.092;2024-02-26T07:24:16;99352.03;;;9.39;100.00
9784;BME280;4931;44.874;-1.092;2024-02-26T07:26:42;99364.63;;;9.40;100.00
9784;BME280;4931;44.874;-1.092;2024-02-26T07:29:07;99359.75;;;9.37;100.00
9784;BME280;4931;44.874;-1.092;2024-02-26T07:31:33;99350.63;;;9.28;100.00
9784;BME280;4931;44.874;-1.092;2024-02-26T07:33:58;99359.25;;;9.21;100.00
9784;BME280;4931;44.874;-1.092;2024-02-26T07:36:24;99370.59;;;9.14;100.00
9784;BME280;4931;44.874;-1.092;2024-02-26T07:38:49;99386.09;;;9.19;100.00
9784;BME280;4931;44.874;-1.092;2024-02-26T07:41:14;99384.09;;;9.25;100.00
9784;BME280;4931;44.874;-1.092;2024-02-26T07:43:40;99372.94;;;9.35;100.00
9784;BME280;4931;44.874;-1.092;2024-02-26T07:46:06;99388.13;;;9.41;100.00
9784;BME280;4931;44.874;-1.092;2024-02-26T07:48:32;99390.38;;;9.39;100.00
9784;BME280;4931;44.874;-1.092;2024-02-26T07:50:57;99398.25;;;9.41;100.00
9784;BME280;4931;44.874;-1.092;2024-02-26T07:53:24;99404.31;;;9.52;100.00
9784;BME280;4931;44.874;-1.092;2024-02-26T07:55:49;99414.06;;;9.44;100.00
9784;BME280;4931;44.874;-1.092;2024-02-26T07:58:15;99405.53;;;9.45;100.00
9784;BME280;4931;44.874;-1.092;2024-02-26T08:00:40;99405.16;;;9.38;100.00
9784;BME280;4931;44.874;-1.092;2024-02-26T08:03:05;99412.47;;;9.29;100.00
9784;BME280;4931;44.874;-1.092;2024-02-26T08:05:31;99404.88;;;9.26;100.00
9784;BME280;4931;44.874;-1.092;2024-02-26T08:07:56;99409.72;;;9.29;100.00
9784;BME280;4931;44.874;-1.092;2024-02-26T08:10:22;99410.81;;;9.28;100.00
9784;BME280;4931;44.874;-1.092;2024-02-26T08:12:47;99413.66;;;9.23;100.00
9784;BME280;4931;44.874;-1.092;2024-02-26T08:15:13;99421.56;;;9.24;100.00
9784;BME280;4931;44.874;-1.092;2024-02-26T08:17:38;99431.19;;;9.22;100.00
9784;BME280;4931;44.874;-1.092;2024-02-26T08:20:04;99433.66;;;9.23;100.00
9784;BME280;4931;44.874;-1.092;2024-02-26T08:22:30;99431.72;;;9.24;100.00
9784;BME280;4931;44.874;-1.092;2024-02-26T08:24:56;99441.44;;;9.30;100.00
9784;BME280;4931;44.874;-1.092;2024-02-26T08:27:21;99445.28;;;9.29;100.00
9784;BME280;4931;44.874;-1.092;2024-02-26T08:29:47;99441.63;;;9.34;100.00
9784;BME280;4931;44.874;-1.092;2024-02-26T08:32:12;99446.09;;;9.43;100.00
9784;BME280;4931;44.874;-1.092;2024-02-26T08:34:37;99445.69;;;9.36;100.00
9784;BME280;4931;44.874;-1.092;2024-02-26T08:37:03;99446.72;;;9.40;100.00
9784;BME280;4931;44.874;-1.092;2024-02-26T08:39:29;99451.06;;;9.41;100.00
9784;BME280;4931;44.874;-1.092;2024-02-26T08:41:54;99445.19;;;9.34;100.00
9784;BME280;4931;44.874;-1.092;2024-02-26T08:44:19;99449.56;;;9.35;100.00
9784;BME280;4931;44.874;-1.092;2024-02-26T08:46:45;99459.91;;;9.38;100.00
9784;BME280;4931;44.874;-1.092;2024-02-26T08:49:11;99459.91;;;9.38;100.00
9784;BME280;4931;44.874;-1.092;2024-02-26T08:51:41;99449.97;;;9.42;100.00
9784;BME280;4931;44.874;-1.092;2024-02-26T08:54:07;99446.09;;;9.43;100.00
9784;BME280;4931;44.874;-1.092;2024-02-26T08:56:33;99456.97;;;9.49;100.00
9784;BME280;4931;44.874;-1.092;2024-02-26T08:58:59;99460.00;;;9.47;100.00
9784;BME280;4931;44.874;-1.092;2024-02-26T09:01:29;99460.72;;;9.53;100.00
9784;BME280;4931;44.874;-1.092;2024-02-26T09:03:54;99463.34;;;9.58;100.00
9784;BME280;4931;44.874;-1.092;2024-02-26T09:06:21;99458.06;;;9.61;100.00
9784;BME280;4931;44.874;-1.092;2024-02-26T09:08:47;99461.72;;;9.57;100.00
9784;BME280;4931;44.874;-1.092;2024-02-26T09:11:12;99454.19;;;9.62;100.00
9784;BME280;4931;44.874;-1.092;2024-02-26T09:13:38;99464.78;;;9.69;100.00
9784;BME280;4931;44.874;-1.092;2024-02-26T09:16:04;99464.63;;;9.74;100.00
9784;BME280;4931;44.874;-1.092;2024-02-26T09:18:30;99476.72;;;9.73;100.00
9784;BME280;4931;44.874;-1.092;2024-02-26T09:20:55;99476.91;;;9.77;100.00
9784;BME280;4931;44.874;-1.092;2024-02-26T09:23:20;99484.22;;;9.82;100.00
9784;BME280;4931;44.874;-1.092;2024-02-26T09:25:46;99491.91;;;9.79;100.00
9784;BME280;4931;44.874;-1.092;2024-02-26T09:28:11;99489.50;;;9.78;100.00
9784;BME280;4931;44.874;-1.092;2024-02-26T09:30:37;99499.66;;;9.77;100.00
9784;BME280;4931;44.874;-1.092;2024-02-26T09:33:04;99507.66;;;9.74;100.00
9784;BME280;4931;44.874;-1.092;2024-02-26T09:35:29;99501.88;;;9.75;100.00
9784;BME280;4931;44.874;-1.092;2024-02-26T09:37:55;99505.72;;;9.74;100.00
9784;BME280;4931;44.874;-1.092;2024-02-26T09:40:21;99510.09;;;9.75;100.00
9784;BME280;4931;44.874;-1.092;2024-02-26T09:42:47;99511.28;;;9.83;100.00
9784;BME280;4931;44.874;-1.092;2024-02-26T09:45:18;99518.63;;;9.88;100.00
9784;BME280;4931;44.874;-1.092;2024-02-26T09:47:44;99525.59;;;9.94;100.00
9784;BME280;4931;44.874;-1.092;2024-02-26T09:50:11;99532.09;;;9.98;100.00
9784;BME280;4931;44.874;-1.092;2024-02-26T09:52:41;99529.22;;;10.03;100.00
9784;BME280;4931;44.874;-1.092;2024-02-26T09:55:08;99541.22;;;10.07;100.00
9784;BME280;4931;44.874;-1.092;2024-02-26T09:57:36;99534.28;;;10.24;100.00
9784;BME280;4931;44.874;-1.092;2024-02-26T10:00:03;99541.78;;;10.32;100.00
9784;BME280;4931;44.874;-1.092;2024-02-26T10:02:36;99547.78;;;10.48;100.00
9784;BME280;4931;44.874;-1.092;2024-02-26T10:05:04;99551.09;;;10.59;100.00
9784;BME280;4931;44.874;-1.092;2024-02-26T10:07:30;99556.53;;;10.73;100.00
9784;BME280;4931;44.874;-1.092;2024-02-26T10:09:57;99557.34;;;10.73;100.00
9784;BME280;4931;44.874;-1.092;2024-02-26T10:12:23;99560.72;;;10.93;100.00
9784;BME280;4931;44.874;-1.092;2024-02-26T10:14:51;99566.22;;;11.16;100.00
9784;BME280;4931;44.874;-1.092;2024-02-26T10:17:16;99581.66;;;11.34;100.00
9784;BME280;4931;44.874;-1.092;2024-02-26T10:19:42;99594.81;;;11.46;100.00
9784;BME280;4931;44.874;-1.092;2024-02-26T10:22:07;99598.25;;;11.29;100.00
9784;BME280;4931;44.874;-1.092;2024-02-26T10:24:33;99615.84;;;11.28;100.00
9784;BME280;4931;44.874;-1.092;2024-02-26T10:26:59;99618.03;;;11.17;100.00
9784;BME280;4931;44.874;-1.092;2024-02-26T10:29:25;99621.09;;;10.93;100.00
9784;BME280;4931;44.874;-1.092;2024-02-26T10:31:51;99635.47;;;10.76;100.00
9784;BME280;4931;44.874;-1.092;2024-02-26T10:34:18;99643.72;;;10.62;100.00
9784;BME280;4931;44.874;-1.092;2024-02-26T10:36:43;99661.19;;;10.38;100.00
9784;BME280;4931;44.874;-1.092;2024-02-26T10:39:12;99658.53;;;10.33;100.00
9784;BME280;4931;44.874;-1.092;2024-02-26T10:41:37;99666.47;;;10.21;100.00
9784;BME280;4931;44.874;-1.092;2024-02-26T10:44:03;99673.75;;;10.11;100.00
9784;BME280;4931;44.874;-1.092;2024-02-26T10:46:29;99678.00;;;10.18;100.00
9784;BME280;4931;44.874;-1.092;2024-02-26T10:48:55;99681.28;;;10.20;100.00
9784;BME280;4931;44.874;-1.092;2024-02-26T10:51:29;99690.69;;;10.13;100.00
9784;BME280;4931;44.874;-1.092;2024-02-26T10:53:56;99689.81;;;10.18;100.00
9784;BME280;4931;44.874;-1.092;2024-02-26T10:56:26;99694.25;;;10.28;100.00
9784;BME280;4931;44.874;-1.092;2024-02-26T10:58:55;99697.94;;;10.37;100.00
9784;BME280;4931;44.874;-1.092;2024-02-26T11:01:22;99692.22;;;10.20;100.00
9784;BME280;4931;44.874;-1.092;2024-02-26T11:03:52;99697.94;;;10.23;100.00
9784;BME280;4931;44.874;-1.092;2024-02-26T11:06:19;99703.41;;;10.23;100.00
9784;BME280;4931;44.874;-1.092;2024-02-26T11:08:50;99711.94;;;10.22;100.00
9784;BME280;4931;44.874;-1.092;2024-02-26T11:11:19;99705.41;;;10.04;100.00
9784;BME280;4931;44.874;-1.092;2024-02-26T11:13:46;99695.25;;;10.04;100.00
9784;BME280;4931;44.874;-1.092;2024-02-26T11:16:18;99712.44;;;10.10;100.00
9784;BME280;4931;44.874;-1.092;2024-02-26T11:18:46;99705.41;;;10.18;100.00
9784;BME280;4931;44.874;-1.092;2024-02-26T11:21:16;99700.34;;;10.11;100.00
9784;BME280;4931;44.874;-1.092;2024-02-26T11:23:44;99694.84;;;10.11;100.00
9784;BME280;4931;44.874;-1.092;2024-02-26T11:26:11;99695.91;;;10.29;100.00
9784;BME280;4931;44.874;-1.092;2024-02-26T11:28:39;99694.47;;;10.32;100.00
9784;BME280;4931;44.874;-1.092;2024-02-26T11:31:05;99684.16;;;10.42;100.00
9784;BME280;4931;44.874;-1.092;2024-02-26T11:33:33;99687.09;;;10.46;100.00
9784;BME280;4931;44.874;-1.092;2024-02-26T11:36:01;99690.84;;;10.64;100.00
9784;BME280;4931;44.874;-1.092;2024-02-26T11:38:28;99691.13;;;10.76;100.00
9784;BME280;4931;44.874;-1.092;2024-02-26T11:40:54;99692.16;;;10.67;100.00
9784;BME280;4931;44.874;-1.092;2024-02-26T11:43:23;99695.59;;;10.72;100.00
9784;BME280;4931;44.874;-1.092;2024-02-26T11:46:34;99695.50;;;10.77;100.00
9784;BME280;4931;44.874;-1.092;2024-02-26T11:51:54;99704.78;;;11.04;100.00
9784;BME280;4931;44.874;-1.092;2024-02-26T11:54:53;99707.25;;;10.92;100.00
9784;BME280;4931;44.874;-1.092;2024-02-26T11:57:29;99713.75;;;10.96;100.00
9784;BME280;4931;44.874;-1.092;2024-02-26T12:02:52;99741.06;;;11.15;100.00
9784;BME280;4931;44.874;-1.092;2024-02-26T12:05:26;99746.84;;;11.13;100.00
9784;BME280;4931;44.874;-1.092;2024-02-26T12:08:13;99758.34;;;11.16;100.00
9784;BME280;4931;44.874;-1.092;2024-02-26T12:10:42;99764.34;;;11.18;100.00
9784;BME280;4931;44.874;-1.092;2024-02-26T12:13:12;99778.75;;;11.23;100.00
9784;BME280;4931;44.874;-1.092;2024-02-26T12:15:43;99770.06;;;11.07;100.00
9784;BME280;4931;44.874;-1.092;2024-02-26T12:18:10;99772.91;;;11.02;100.00
9784;BME280;4931;44.874;-1.092;2024-02-26T12:20:37;99786.75;;;10.69;100.00
9784;BME280;4931;44.874;-1.092;2024-02-26T12:23:03;99789.19;;;10.71;100.00
9784;BME280;4931;44.874;-1.092;2024-02-26T12:25:32;99787.13;;;10.76;100.00
9784;BME280;4931;44.874;-1.092;2024-02-26T12:27:58;99787.34;;;10.80;100.00
9784;BME280;4931;44.874;-1.092;2024-02-26T12:30:24;99784.50;;;10.85;100.00
9784;BME280;4931;44.874;-1.092;2024-02-26T12:32:55;99786.53;;;10.79;100.00
9784;BME280;4931;44.874;-1.092;2024-02-26T12:35:26;99780.72;;;10.95;100.00
9784;BME280;4931;44.874;-1.092;2024-02-26T12:37:53;99778.66;;;11.15;100.00
9784;BME280;4931;44.874;-1.092;2024-02-26T12:40:19;99786.78;;;11.20;100.00
9784;BME280;4931;44.874;-1.092;2024-02-26T12:42:45;99782.00;;;11.25;100.00
9784;BME280;4931;44.874;-1.092;2024-02-26T12:45:11;99783.97;;;11.48;100.00
9784;BME280;4931;44.874;-1.092;2024-02-26T12:47:42;99796.94;;;11.70;100.00
9784;BME280;4931;44.874;-1.092;2024-02-26T12:50:09;99805.34;;;11.51;100.00
9784;BME280;4931;44.874;-1.092;2024-02-26T12:52:36;99809.63;;;11.43;100.00
9784;BME280;4931;44.874;-1.092;2024-02-26T12:55:02;99810.28;;;11.26;100.00
9784;BME280;4931;44.874;-1.092;2024-02-26T12:57:31;99807.22;;;11.13;100.00
9784;BME280;4931;44.874;-1.092;2024-02-26T12:59:58;99814.25;;;11.20;100.00
9784;BME280;4931;44.874;-1.092;2024-02-26T13:02:24;99822.28;;;11.30;100.00
9784;BME280;4931;44.874;-1.092;2024-02-26T13:04:51;99818.78;;;11.38;100.00
9784;BME280;4931;44.874;-1.092;2024-02-26T13:07:16;99818.69;;;11.43;100.00
9784;BME280;4931;44.874;-1.092;2024-02-26T13:09:42;99822.44;;;11.48;100.00